Time;durP1;ratioP1;P1;durP2;ratioP2;P2;SDS_P1;SDS_P2;PMS_P1;PMS_P2;Temp;Humidity;BMP_temperature;BMP_pressure;BME280_temperature;BME280_humidity;BME280_pressure;Samples;Min_cycle;Max_cycle;Signal;HPM_P1;HPM_P2
2022/08/10 00:01:51;;;;;;;5.47;4.60;;;;;;;;;;4991854;28;20039;-65
2022/08/10 00:04:17;;;;;;;7.60;4.57;;;;;;;;;;4991495;28;20104;-65
2022/08/10 00:06:43;;;;;;;5.80;4.63;;;;;;;;;;4974098;28;20046;-65
2022/08/10 00:09:09;;;;;;;6.93;4.85;;;;;;;;;;4992066;28;20049;-65
2022/08/10 00:11:35;;;;;;;5.20;4.70;;;;;;;;;;4991384;28;20038;-65
2022/08/10 00:14:01;;;;;;;5.50;4.90;;;;;;;;;;4974088;28;20101;-65
2022/08/10 00:16:27;;;;;;;7.30;4.93;;;;;;;;;;4991945;28;20050;-65
2022/08/10 00:18:53;;;;;;;5.63;5.00;;;;;;;;;;4973517;28;20206;-65
2022/08/10 00:21:19;;;;;;;8.40;5.38;;;;;;;;;;4991637;28;20038;-65
2022/08/10 00:23:45;;;;;;;5.75;4.85;;;;;;;;;;4991571;28;20066;-65
2022/08/10 00:26:11;;;;;;;6.55;5.22;;;;;;;;;;4990985;28;20113;-65
2022/08/10 00:28:37;;;;;;;6.88;5.40;;;;;;;;;;4991765;28;20046;-65
2022/08/10 00:31:04;;;;;;;6.25;5.35;;;;;;;;;;4973998;28;20404;-65
2022/08/10 00:33:30;;;;;;;9.52;6.35;;;;;;;;;;4991289;28;20504;-65
2022/08/10 00:35:56;;;;;;;7.15;5.53;;;;;;;;;;4991654;28;20465;-65
2022/08/10 00:38:22;;;;;;;7.05;6.28;;;;;;;;;;4991604;28;20053;-65
2022/08/10 00:40:48;;;;;;;7.28;5.95;;;;;;;;;;4991393;28;20046;-65
2022/08/10 00:43:14;;;;;;;6.78;5.82;;;;;;;;;;4991577;28;20643;-65
2022/08/10 00:45:40;;;;;;;7.55;5.90;;;;;;;;;;4991231;28;20045;-65
2022/08/10 00:48:06;;;;;;;7.18;5.97;;;;;;;;;;4990835;28;20109;-65
2022/08/10 00:50:33;;;;;;;7.03;5.45;;;;;;;;;;4991529;28;20038;-65
2022/08/10 00:52:59;;;;;;;7.55;6.68;;;;;;;;;;4991361;28;20104;-65
2022/08/10 00:55:25;;;;;;;8.15;6.15;;;;;;;;;;4990811;28;20034;-65
2022/08/10 00:57:51;;;;;;;8.88;5.53;;;;;;;;;;4991218;28;20054;-65
2022/08/10 01:00:17;;;;;;;6.93;5.97;;;;;;;;;;4991419;28;20043;-65
2022/08/10 01:02:44;;;;;;;7.13;5.80;;;;;;;;;;4991060;28;20042;-65
2022/08/10 01:05:11;;;;;;;7.93;6.15;;;;;;;;;;4991332;28;20038;-65
2022/08/10 01:07:53;;;;;;;7.68;6.30;;;;;;;;;;4991196;28;20046;-65
2022/08/10 01:10:37;;;;;;;8.13;6.85;;;;;;;;;;4990927;28;20046;-65
2022/08/10 01:13:12;;;;;;;8.98;6.85;;;;;;;;;;4991221;28;20404;-65
2022/08/10 01:15:53;;;;;;;8.23;6.10;;;;;;;;;;4991304;28;20078;-65
2022/08/10 01:18:39;;;;;;;7.25;6.03;;;;;;;;;;4994499;28;20049;-65
2022/08/10 01:21:18;;;;;;;9.30;6.40;;;;;;;;;;4995217;28;20549;-65
2022/08/10 01:23:50;;;;;;;11.27;6.90;;;;;;;;;;4995049;28;20038;-65
2022/08/10 01:26:27;;;;;;;8.82;6.15;;;;;;;;;;4977016;28;20358;-65
2022/08/10 01:29:08;;;;;;;9.75;7.05;;;;;;;;;;4994995;28;20069;-65
2022/08/10 01:31:39;;;;;;;11.85;6.57;;;;;;;;;;4994327;28;20371;-65
2022/08/10 01:34:11;;;;;;;9.05;6.90;;;;;;;;;;4994765;28;20046;-65
2022/08/10 01:36:43;;;;;;;10.60;7.47;;;;;;;;;;4994466;28;20125;-65
2022/08/10 01:39:09;;;;;;;;;;;;;;;;;;4994807;28;20047;-65
2022/08/10 01:41:41;;;;;;;9.43;7.05;;;;;;;;;;4976929;28;19924;-65
2022/08/10 01:44:11;;;;;;;9.43;6.60;;;;;;;;;;4994556;28;20057;-65
2022/08/10 01:46:40;;;;;;;9.50;6.95;;;;;;;;;;4993427;28;20035;-65
2022/08/10 01:49:07;;;;;;;9.82;7.10;;;;;;;;;;4992897;28;20050;-65
2022/08/10 01:51:39;;;;;;;9.75;7.40;;;;;;;;;;4993499;28;20404;-65
2022/08/10 01:54:05;;;;;;;;;;;;;;;;;;4993169;28;20074;-65
2022/08/10 01:56:33;;;;;;;9.50;7.05;;;;;;;;;;4993351;28;20011;-65
2022/08/10 01:59:02;;;;;;;10.13;7.50;;;;;;;;;;4993205;28;20073;-65
2022/08/10 02:01:29;;;;;;;10.05;7.60;;;;;;;;;;4992890;28;20038;-65
2022/08/10 02:03:57;;;;;;;11.13;7.80;;;;;;;;;;4993060;28;20282;-65
2022/08/10 02:06:26;;;;;;;9.45;7.40;;;;;;;;;;4993504;28;20153;-65
2022/08/10 02:08:52;;;;;;;9.00;7.63;;;;;;;;;;4992545;28;20072;-65
2022/08/10 02:11:19;;;;;;;9.98;7.63;;;;;;;;;;4993011;28;20065;-65
2022/08/10 02:13:45;;;;;;;11.85;8.40;;;;;;;;;;4993058;28;20038;-65
2022/08/10 02:16:12;;;;;;;11.25;8.15;;;;;;;;;;4992540;28;20093;-65
2022/08/10 02:18:39;;;;;;;10.98;7.85;;;;;;;;;;4992782;28;20472;-65
2022/08/10 02:21:06;;;;;;;9.40;7.60;;;;;;;;;;4992826;28;20041;-65
2022/08/10 02:23:33;;;;;;;9.90;8.23;;;;;;;;;;4992221;28;20038;-65
2022/08/10 02:26:00;;;;;;;11.18;7.93;;;;;;;;;;4992666;28;20441;-65
2022/08/10 02:28:28;;;;;;;11.48;7.57;;;;;;;;;;4992130;28;20057;-65
2022/08/10 02:30:56;;;;;;;10.63;7.38;;;;;;;;;;4992224;28;20472;-65
2022/08/10 02:33:23;;;;;;;8.65;7.47;;;;;;;;;;4992406;28;20042;-65
2022/08/10 02:35:50;;;;;;;9.45;7.85;;;;;;;;;;4992518;28;20042;-65
2022/08/10 02:38:19;;;;;;;9.55;7.30;;;;;;;;;;4991982;28;20065;-65
2022/08/10 02:40:47;;;;;;;12.10;8.40;;;;;;;;;;4992417;28;20073;-65
2022/08/10 02:43:21;;;;;;;8.43;6.85;;;;;;;;;;4992445;28;20038;-65
2022/08/10 02:45:49;;;;;;;10.05;6.90;;;;;;;;;;4992031;28;20042;-65
2022/08/10 02:48:20;;;;;;;11.80;8.13;;;;;;;;;;4992011;28;20521;-65
2022/08/10 02:50:57;;;;;;;10.05;7.50;;;;;;;;;;4992268;28;20034;-65
2022/08/10 02:53:35;;;;;;;9.85;7.65;;;;;;;;;;4974414;28;20038;-65
2022/08/10 02:56:14;;;;;;;12.50;8.10;;;;;;;;;;4992391;28;20046;-65
2022/08/10 02:58:41;;;;;;;9.77;8.15;;;;;;;;;;4992091;28;20042;-65
2022/08/10 03:01:09;;;;;;;11.75;8.07;;;;;;;;;;4991743;28;20489;-65
2022/08/10 03:03:43;;;;;;;11.98;8.25;;;;;;;;;;4992344;28;20073;-65
2022/08/10 03:06:11;;;;;;;10.75;8.70;;;;;;;;;;4992025;28;20039;-65
2022/08/10 03:08:40;;;;;;;12.68;9.57;;;;;;;;;;4974041;28;20046;-65
2022/08/10 03:11:08;;;;;;;11.90;9.30;;;;;;;;;;4991741;28;20049;-65
2022/08/10 03:13:35;;;;;;;12.75;9.20;;;;;;;;;;4992043;28;20096;-65
2022/08/10 03:16:02;;;;;;;14.70;9.32;;;;;;;;;;4991454;28;20120;-65
2022/08/10 03:18:29;;;;;;;11.57;9.07;;;;;;;;;;4991716;28;20125;-65
2022/08/10 03:20:56;;;;;;;13.85;9.60;;;;;;;;;;4991685;28;20069;-65
2022/08/10 03:23:23;;;;;;;13.20;9.25;;;;;;;;;;4991355;28;20485;-65
2022/08/10 03:25:51;;;;;;;13.30;9.65;;;;;;;;;;4973715;28;20035;-65
2022/08/10 03:28:17;;;;;;;12.20;9.40;;;;;;;;;;4991271;28;20097;-65
2022/08/10 03:30:43;;;;;;;12.30;9.52;;;;;;;;;;4991210;28;20077;-65
2022/08/10 03:33:10;;;;;;;13.63;9.93;;;;;;;;;;4991245;28;20073;-65
2022/08/10 03:35:36;;;;;;;16.23;10.23;;;;;;;;;;4991391;28;20071;-65
2022/08/10 03:38:02;;;;;;;15.50;10.18;;;;;;;;;;4990851;28;20089;-65
2022/08/10 03:40:29;;;;;;;14.90;9.90;;;;;;;;;;4990522;28;20093;-65
2022/08/10 03:42:57;;;;;;;16.50;10.45;;;;;;;;;;4991310;28;20145;-65
2022/08/10 03:45:25;;;;;;;17.50;10.52;;;;;;;;;;4990881;28;20119;-65
2022/08/10 03:47:51;;;;;;;13.35;10.02;;;;;;;;;;4990968;28;20129;-65
2022/08/10 03:50:18;;;;;;;15.90;9.82;;;;;;;;;;4991080;28;20093;-65
2022/08/10 03:52:44;;;;;;;13.57;9.90;;;;;;;;;;4990189;28;20034;-65
2022/08/10 03:55:11;;;;;;;16.70;10.50;;;;;;;;;;4990678;28;20084;-65
2022/08/10 03:57:37;;;;;;;13.50;10.13;;;;;;;;;;4990701;28;20034;-65
2022/08/10 04:00:03;;;;;;;16.23;10.50;;;;;;;;;;4990474;28;20440;-65
2022/08/10 04:02:30;;;;;;;14.45;10.30;;;;;;;;;;4991118;28;20041;-65
2022/08/10 04:04:56;;;;;;;15.18;10.20;;;;;;;;;;4973695;28;20471;-65
2022/08/10 04:07:22;;;;;;;18.50;10.60;;;;;;;;;;4990312;28;20247;-65
2022/08/10 04:09:50;;;;;;;15.18;9.65;;;;;;;;;;4990236;28;20038;-65
2022/08/10 04:12:16;;;;;;;15.00;10.00;;;;;;;;;;4973092;28;20125;-65
2022/08/10 04:14:42;;;;;;;15.93;10.43;;;;;;;;;;4989951;28;20528;-65
2022/08/10 04:17:08;;;;;;;16.38;10.32;;;;;;;;;;4990537;28;20038;-65
2022/08/10 04:19:39;;;;;;;12.25;9.07;;;;;;;;;;4990556;28;20401;-65
2022/08/10 04:22:13;;;;;;;12.98;9.43;;;;;;;;;;4990235;28;20039;-65
2022/08/10 04:24:41;;;;;;;15.98;9.70;;;;;;;;;;4990274;28;20034;-65
2022/08/10 04:27:07;;;;;;;10.98;8.85;;;;;;;;;;4990252;28;20042;-65
2022/08/10 04:29:34;;;;;;;15.40;10.00;;;;;;;;;;4990147;28;20046;-65
2022/08/10 04:32:01;;;;;;;16.15;10.23;;;;;;;;;;4990571;28;20057;-64
2022/08/10 04:34:30;;;;;;;16.27;10.30;;;;;;;;;;4991369;28;20046;-64
2022/08/10 04:36:57;;;;;;;16.00;10.45;;;;;;;;;;4991049;28;20539;-64
2022/08/10 04:39:23;;;;;;;16.15;10.80;;;;;;;;;;4991478;28;20509;-65
2022/08/10 04:41:49;;;;;;;16.10;10.45;;;;;;;;;;4991518;28;20071;-65
2022/08/10 04:44:16;;;;;;;15.00;9.65;;;;;;;;;;4991078;28;20038;-65
2022/08/10 04:46:42;;;;;;;15.65;9.70;;;;;;;;;;4990490;28;20034;-65
2022/08/10 04:49:08;;;;;;;12.48;9.57;;;;;;;;;;4989927;28;20231;-65
2022/08/10 04:51:34;;;;;;;16.52;9.75;;;;;;;;;;4988959;28;20046;-65
2022/08/10 04:54:00;;;;;;;15.68;9.95;;;;;;;;;;4990306;28;20046;-65
2022/08/10 04:56:26;;;;;;;16.80;10.40;;;;;;;;;;4990120;28;20186;-65
2022/08/10 04:58:52;;;;;;;11.90;9.57;;;;;;;;;;4989544;28;20133;-65
2022/08/10 05:01:18;;;;;;;13.13;9.20;;;;;;;;;;4990113;28;20049;-65
2022/08/10 05:03:44;;;;;;;13.68;9.32;;;;;;;;;;4989927;28;20062;-65
2022/08/10 05:06:10;;;;;;;12.35;8.68;;;;;;;;;;4989564;28;20045;-65
2022/08/10 05:08:36;;;;;;;15.27;9.20;;;;;;;;;;4990012;28;20461;-65
2022/08/10 05:11:02;;;;;;;14.98;9.65;;;;;;;;;;4989588;28;20046;-65
2022/08/10 05:13:28;;;;;;;12.55;8.80;;;;;;;;;;4989722;28;20078;-65
2022/08/10 05:15:55;;;;;;;13.48;9.35;;;;;;;;;;4971896;28;20046;-65
2022/08/10 05:18:21;;;;;;;15.13;9.43;;;;;;;;;;4989377;28;20046;-65
2022/08/10 05:20:47;;;;;;;13.45;10.02;;;;;;;;;;4989664;28;20484;-65
2022/08/10 05:23:13;;;;;;;15.32;9.95;;;;;;;;;;4989361;28;20050;-65
2022/08/10 05:25:39;;;;;;;15.95;9.65;;;;;;;;;;4989411;28;20310;-65
2022/08/10 05:28:05;;;;;;;13.85;9.98;;;;;;;;;;4989620;28;20104;-65
2022/08/10 05:30:31;;;;;;;16.30;10.90;;;;;;;;;;4989153;28;20072;-65
2022/08/10 05:32:57;;;;;;;14.18;10.30;;;;;;;;;;4989603;28;20162;-65
2022/08/10 05:35:23;;;;;;;14.32;9.95;;;;;;;;;;4989704;28;20151;-65
2022/08/10 05:37:51;;;;;;;14.73;10.18;;;;;;;;;;4988897;28;20061;-65
2022/08/10 05:40:17;;;;;;;15.52;10.38;;;;;;;;;;4989794;28;20137;-65
2022/08/10 05:42:43;;;;;;;16.85;9.98;;;;;;;;;;4989698;28;20159;-65
2022/08/10 05:45:18;;;;;;;14.85;9.85;;;;;;;;;;4990157;28;20050;-65
2022/08/10 05:47:45;;;;;;;14.73;10.52;;;;;;;;;;4990406;28;20050;-65
2022/08/10 05:50:11;;;;;;;15.13;10.25;;;;;;;;;;5002540;28;20042;-67
2022/08/10 05:52:37;;;;;;;17.35;10.70;;;;;;;;;;4976565;28;20050;-68
2022/08/10 05:55:03;;;;;;;17.45;11.05;;;;;;;;;;4990138;28;20565;-68
2022/08/10 05:57:29;;;;;;;16.73;10.77;;;;;;;;;;4982024;28;20043;-68
2022/08/10 06:00:02;;;;;;;17.05;9.65;;;;;;;;;;4955347;28;20042;-67
2022/08/10 06:02:28;;;;;;;;;;;;;;;;;;4990838;28;20389;-66
2022/08/10 06:04:55;;;;;;;18.13;10.57;;;;;;;;;;5001180;28;19922;-66
2022/08/10 06:07:21;;;;;;;14.35;9.48;;;;;;;;;;4992896;28;20034;-65
2022/08/10 06:09:48;;;;;;;15.73;10.73;;;;;;;;;;4993632;28;20405;-66
2022/08/10 06:12:14;;;;;;;15.52;9.82;;;;;;;;;;4993155;28;20050;-66
2022/08/10 06:15:00;;;;;;;13.20;9.50;;;;;;;;;;4993043;28;20646;-66
2022/08/10 06:17:30;;;;;;;14.93;10.00;;;;;;;;;;4993191;28;20097;-65
2022/08/10 06:20:00;;;;;;;14.38;9.68;;;;;;;;;;4989931;28;20832;-63
2022/08/10 06:22:26;;;;;;;15.15;10.43;;;;;;;;;;5001267;28;20126;-63
2022/08/10 06:24:55;;;;;;;14.35;9.77;;;;;;;;;;4993054;28;20073;-63
2022/08/10 06:27:21;;;;;;;16.10;9.43;;;;;;;;;;4993000;28;20030;-62
2022/08/10 06:29:48;;;;;;;14.10;8.55;;;;;;;;;;4992866;28;20549;-62
2022/08/10 06:32:15;;;;;;;13.38;9.15;;;;;;;;;;4993252;28;20078;-64
2022/08/10 06:34:44;;;;;;;13.20;9.25;;;;;;;;;;4996865;28;20088;-63
2022/08/10 06:37:13;;;;;;;17.00;10.20;;;;;;;;;;4998187;28;20125;-63
2022/08/10 06:39:39;;;;;;;9.93;7.57;;;;;;;;;;4992806;28;20053;-64
2022/08/10 06:42:16;;;;;;;10.52;8.25;;;;;;;;;;4993294;28;20727;-64
2022/08/10 06:44:57;;;;;;;13.25;8.75;;;;;;;;;;4983011;28;20058;-64
2022/08/10 06:47:26;;;;;;;12.68;8.05;;;;;;;;;;4993668;28;20041;-64
2022/08/10 06:49:54;;;;;;;14.40;8.25;;;;;;;;;;4974560;28;20050;-64
2022/08/10 06:52:21;;;;;;;12.95;7.88;;;;;;;;;;4992604;28;20089;-65
2022/08/10 06:54:48;;;;;;;13.02;7.95;;;;;;;;;;4991456;28;20046;-63
2022/08/10 06:57:16;;;;;;;8.88;6.95;;;;;;;;;;5004930;28;20140;-64
2022/08/10 06:59:44;;;;;;;11.63;7.45;;;;;;;;;;4994852;28;20350;-64
2022/08/10 07:02:12;;;;;;;9.88;7.28;;;;;;;;;;4992696;28;20034;-64
2022/08/10 07:04:38;;;;;;;10.00;6.75;;;;;;;;;;4992362;28;20038;-64
2022/08/10 07:07:05;;;;;;;9.27;6.55;;;;;;;;;;4992617;28;20038;-63
2022/08/10 07:09:34;;;;;;;9.02;6.38;;;;;;;;;;4991679;28;20469;-64
2022/08/10 07:12:01;;;;;;;7.32;5.63;;;;;;;;;;4975731;28;20035;-64
2022/08/10 07:14:28;;;;;;;7.55;5.90;;;;;;;;;;4991092;28;20132;-64
2022/08/10 07:16:54;;;;;;;8.75;5.57;;;;;;;;;;4992188;28;20049;-67
2022/08/10 07:19:21;;;;;;;8.60;6.22;;;;;;;;;;4992227;28;20042;-67
2022/08/10 07:21:47;;;;;;;7.35;4.85;;;;;;;;;;4992284;28;20050;-64
2022/08/10 07:24:15;;;;;;;7.57;4.90;;;;;;;;;;4991521;28;20038;-63
2022/08/10 07:26:45;;;;;;;6.65;4.57;;;;;;;;;;4992244;28;20039;-63
2022/08/10 07:29:11;;;;;;;7.20;4.30;;;;;;;;;;4991698;28;20054;-63
2022/08/10 07:31:37;;;;;;;7.00;4.03;;;;;;;;;;4991705;28;20429;-64
2022/08/10 07:34:06;;;;;;;6.90;4.10;;;;;;;;;;4991949;28;20050;-66
2022/08/10 07:36:32;;;;;;;10.05;4.20;;;;;;;;;;4976011;28;20390;-64
2022/08/10 07:38:59;;;;;;;5.50;3.88;;;;;;;;;;4973746;28;20590;-66
2022/08/10 07:41:29;;;;;;;9.38;4.68;;;;;;;;;;4990974;28;20061;-65
2022/08/10 07:43:56;;;;;;;6.75;3.50;;;;;;;;;;4987406;28;20119;-66
2022/08/10 07:46:24;;;;;;;4.55;3.38;;;;;;;;;;4992162;28;20566;-63
2022/08/10 07:48:59;;;;;;;7.30;4.07;;;;;;;;;;4991288;28;20466;-65
2022/08/10 07:51:26;;;;;;;7.50;3.80;;;;;;;;;;4991131;28;20049;-66
2022/08/10 07:53:53;;;;;;;6.80;3.90;;;;;;;;;;4990529;28;20046;-65
2022/08/10 07:56:22;;;;;;;5.18;3.60;;;;;;;;;;4996326;28;20557;-64
2022/08/10 07:58:49;;;;;;;6.32;3.40;;;;;;;;;;4991628;28;20421;-66
2022/08/10 08:01:15;;;;;;;5.75;3.60;;;;;;;;;;4991837;28;20046;-65
2022/08/10 08:03:42;;;;;;;8.20;3.63;;;;;;;;;;4991509;28;20121;-67
2022/08/10 08:06:08;;;;;;;5.28;3.78;;;;;;;;;;4991291;28;20042;-66
2022/08/10 08:08:35;;;;;;;9.50;3.53;;;;;;;;;;5001077;28;20042;-67
2022/08/10 08:11:02;;;;;;;8.38;2.83;;;;;;;;;;4991066;28;20096;-66
2022/08/10 08:13:28;;;;;;;4.78;3.40;;;;;;;;;;4991100;28;20046;-66
2022/08/10 08:15:56;;;;;;;4.85;3.00;;;;;;;;;;4991037;28;20050;-64
2022/08/10 08:18:23;;;;;;;4.35;2.95;;;;;;;;;;4991138;28;20081;-64
2022/08/10 08:20:49;;;;;;;6.13;2.88;;;;;;;;;;4991068;28;20038;-64
2022/08/10 08:23:16;;;;;;;6.53;2.67;;;;;;;;;;4991190;28;20085;-64
2022/08/10 08:25:43;;;;;;;5.07;2.78;;;;;;;;;;4985949;28;20038;-64
2022/08/10 08:28:09;;;;;;;4.75;2.55;;;;;;;;;;4991361;28;20034;-64
2022/08/10 08:30:36;;;;;;;5.28;2.72;;;;;;;;;;4989530;28;20038;-65
2022/08/10 08:33:11;;;;;;;3.72;2.67;;;;;;;;;;4989429;28;20038;-64
2022/08/10 08:35:47;;;;;;;5.80;2.75;;;;;;;;;;4989396;28;20065;-65
2022/08/10 08:38:14;;;;;;;6.78;2.90;;;;;;;;;;4989811;28;20524;-65
2022/08/10 08:40:42;;;;;;;4.80;2.83;;;;;;;;;;4989829;28;20401;-65
2022/08/10 08:43:27;;;;;;;4.15;2.47;;;;;;;;;;4990404;28;20046;-63
2022/08/10 08:46:11;;;;;;;4.78;2.60;;;;;;;;;;4990468;28;20081;-63
2022/08/10 08:48:49;;;;;;;6.38;3.10;;;;;;;;;;4989275;28;20138;-63
2022/08/10 08:51:34;;;;;;;5.90;2.90;;;;;;;;;;4990943;28;20069;-63
2022/08/10 08:54:19;;;;;;;4.43;2.70;;;;;;;;;;4989629;28;20048;-63
2022/08/10 08:56:54;;;;;;;4.97;2.47;;;;;;;;;;4989208;28;20046;-63
2022/08/10 08:59:26;;;;;;;7.57;3.10;;;;;;;;;;4989807;28;20086;-63
2022/08/10 09:02:17;;;;;;;2.60;2.13;;;;;;;;;;4988229;28;20057;-64
2022/08/10 09:04:49;;;;;;;5.03;2.60;;;;;;;;;;4989538;28;20606;-64
2022/08/10 09:07:25;;;;;;;5.30;2.22;;;;;;;;;;4989791;28;20042;-64
2022/08/10 09:10:14;;;;;;;6.53;2.40;;;;;;;;;;4954891;28;20061;-62
2022/08/10 09:12:57;;;;;;;4.00;2.20;;;;;;;;;;4988078;28;20043;-63
2022/08/10 09:15:28;;;;;;;3.75;2.20;;;;;;;;;;4990841;28;20114;-63
2022/08/10 09:18:12;;;;;;;4.97;2.30;;;;;;;;;;4986610;28;20042;-63
2022/08/10 09:20:47;;;;;;;4.55;1.90;;;;;;;;;;4987134;28;20469;-63
2022/08/10 09:23:31;;;;;;;5.57;1.95;;;;;;;;;;4989331;28;20101;-65
2022/08/10 09:25:59;;;;;;;9.27;2.42;;;;;;;;;;4989785;28;20043;-62
2022/08/10 09:28:30;;;;;;;4.32;2.03;;;;;;;;;;4988900;28;20536;-62
2022/08/10 09:30:59;;;;;;;3.58;2.33;;;;;;;;;;4971332;28;20041;-62
2022/08/10 09:33:30;;;;;;;4.53;2.00;;;;;;;;;;4988481;28;20041;-62
2022/08/10 09:35:59;;;;;;;10.57;2.10;;;;;;;;;;4963647;28;20097;-63
2022/08/10 09:38:28;;;;;;;4.22;1.73;;;;;;;;;;4988530;28;20101;-64
2022/08/10 09:40:54;;;;;;;3.50;1.70;;;;;;;;;;4995366;28;20050;-64
2022/08/10 09:43:27;;;;;;;2.80;2.10;;;;;;;;;;5002082;28;20038;-64
2022/08/10 09:46:02;;;;;;;4.60;1.80;;;;;;;;;;4992519;28;20165;-64
2022/08/10 09:48:38;;;;;;;3.95;1.98;;;;;;;;;;4958783;28;20058;-65
2022/08/10 09:51:23;;;;;;;2.67;1.83;;;;;;;;;;4972384;28;20046;-65
2022/08/10 09:53:52;;;;;;;3.50;1.80;;;;;;;;;;4959475;28;20049;-65
2022/08/10 09:56:27;;;;;;;4.85;2.10;;;;;;;;;;4989400;28;20038;-63
2022/08/10 09:59:03;;;;;;;5.68;1.92;;;;;;;;;;4993906;28;20342;-65
2022/08/10 10:01:32;;;;;;;4.22;2.33;;;;;;;;;;4983814;28;20042;-64
2022/08/10 10:04:09;;;;;;;6.20;1.92;;;;;;;;;;4994517;28;20054;-64
2022/08/10 10:06:35;;;;;;;7.18;1.92;;;;;;;;;;4986678;28;20046;-64
2022/08/10 10:09:20;;;;;;;2.25;1.73;;;;;;;;;;4991725;28;20038;-65
2022/08/10 10:11:55;;;;;;;2.03;1.60;;;;;;;;;;4992551;28;20046;-64
2022/08/10 10:14:34;;;;;;;4.28;1.45;;;;;;;;;;4992302;28;20041;-64
2022/08/10 10:17:16;;;;;;;4.03;1.75;;;;;;;;;;4995167;28;20042;-65
2022/08/10 10:19:54;;;;;;;3.60;1.40;;;;;;;;;;4990930;28;20065;-64
2022/08/10 10:22:36;;;;;;;11.55;7.25;;;;;;;;;;4993217;28;20034;-63
2022/08/10 10:25:02;;;;;;;;;;;;;;;;;;4992294;28;20381;-66
2022/08/10 10:27:46;;;;;;;3.67;1.65;;;;;;;;;;4995888;28;19928;-66
2022/08/10 10:30:14;;;;;;;2.17;1.40;;;;;;;;;;4997345;28;20043;-66
2022/08/10 10:33:03;;;;;;;4.22;2.60;;;;;;;;;;4992851;28;20610;-66
2022/08/10 10:35:40;;;;;;;2.30;1.10;;;;;;;;;;4982353;28;20056;-66
2022/08/10 10:38:08;;;;;;;5.65;1.17;;;;;;;;;;4991916;28;20129;-66
2022/08/10 10:40:41;;;;;;;2.60;1.27;;;;;;;;;;4992287;28;20038;-66
2022/08/10 10:43:08;;;;;;;1.73;1.17;;;;;;;;;;4992907;28;20046;-66
2022/08/10 10:45:38;;;;;;;1.10;1.00;;;;;;;;;;5002334;28;20625;-66
2022/08/10 10:48:13;;;;;;;4.13;0.90;;;;;;;;;;4973756;28;20167;-66
2022/08/10 10:50:58;;;;;;;1.65;1.00;;;;;;;;;;4991791;28;20054;-66
2022/08/10 10:53:35;;;;;;;1.73;1.15;;;;;;;;;;4992307;28;20038;-66
2022/08/10 10:56:20;;;;;;;2.78;1.17;;;;;;;;;;4992363;28;20038;-66
2022/08/10 10:59:04;;;;;;;2.95;0.93;;;;;;;;;;4992132;28;20046;-66
2022/08/10 11:01:53;;;;;;;3.08;1.25;;;;;;;;;;4992075;28;20038;-67
2022/08/10 11:04:26;;;;;;;2.83;1.20;;;;;;;;;;4978182;28;20052;-66
2022/08/10 11:07:09;;;;;;;1.95;1.05;;;;;;;;;;4986704;28;20089;-66
2022/08/10 11:09:47;;;;;;;4.07;1.30;;;;;;;;;;4991265;28;20101;-66
2022/08/10 11:12:19;;;;;;;2.58;1.15;;;;;;;;;;4991680;28;20050;-68
2022/08/10 11:14:55;;;;;;;1.10;0.93;;;;;;;;;;4991678;28;20042;-68
2022/08/10 11:17:37;;;;;;;3.50;1.10;;;;;;;;;;4991448;28;20048;-68
2022/08/10 11:20:09;;;;;;;2.13;1.45;;;;;;;;;;4991527;28;20511;-68
2022/08/10 11:22:42;;;;;;;1.98;1.00;;;;;;;;;;4991813;28;20042;-68
2022/08/10 11:25:11;;;;;;;2.20;1.20;;;;;;;;;;4991071;28;20417;-68
2022/08/10 11:27:40;;;;;;;1.85;1.02;;;;;;;;;;4991374;28;20133;-68
2022/08/10 11:30:09;;;;;;;7.32;1.33;;;;;;;;;;4991231;28;20845;-67
2022/08/10 11:32:55;;;;;;;3.92;1.00;;;;;;;;;;4991414;28;20043;-67
2022/08/10 11:35:31;;;;;;;1.67;1.00;;;;;;;;;;4991278;28;20049;-69
2022/08/10 11:37:57;;;;;;;1.40;1.00;;;;;;;;;;4974149;28;20065;-69
2022/08/10 11:40:42;;;;;;;3.53;1.10;;;;;;;;;;4990867;28;20559;-69
2022/08/10 11:43:08;;;;;;;2.50;1.10;;;;;;;;;;4991497;28;20121;-68
2022/08/10 11:45:35;;;;;;;6.90;1.75;;;;;;;;;;4990597;28;20175;-68
2022/08/10 11:48:20;;;;;;;3.08;1.00;;;;;;;;;;4991305;28;20145;-68
2022/08/10 11:50:49;;;;;;;2.42;1.00;;;;;;;;;;4991046;28;20077;-68
2022/08/10 11:53:28;;;;;;;2.45;1.00;;;;;;;;;;4991018;28;20121;-68
2022/08/10 11:55:55;;;;;;;3.47;1.02;;;;;;;;;;4990959;28;20069;-67
2022/08/10 12:01:09;;;;;;;1.92;1.00;;;;;;;;;;4993719;28;20042;-68
2022/08/10 12:03:36;;;;;;;2.25;0.70;;;;;;;;;;4999281;28;20061;-68
2022/08/10 12:06:04;;;;;;;0.93;0.93;;;;;;;;;;4990507;28;20042;-69
2022/08/10 12:08:31;;;;;;;1.05;0.85;;;;;;;;;;4991469;28;20104;-66
2022/08/10 12:10:57;;;;;;;1.15;0.90;;;;;;;;;;4989401;28;20117;-66
2022/08/10 12:13:30;;;;;;;6.80;1.00;;;;;;;;;;4994436;28;20044;-65
2022/08/10 12:15:57;;;;;;;5.18;1.00;;;;;;;;;;4989754;28;20080;-66
2022/08/10 12:18:45;;;;;;;1.60;0.80;;;;;;;;;;4990528;28;20120;-67
2022/08/10 12:21:34;;;;;;;1.13;0.90;;;;;;;;;;4994190;28;20046;-66
2022/08/10 12:24:08;;;;;;;5.75;1.17;;;;;;;;;;4988810;28;20060;-67
2022/08/10 12:26:37;;;;;;;4.50;1.00;;;;;;;;;;4995403;28;20042;-67
2022/08/10 12:29:23;;;;;;;0.88;0.88;;;;;;;;;;4990901;28;20042;-66
2022/08/10 12:32:05;;;;;;;2.35;0.80;;;;;;;;;;4989212;28;20054;-67
2022/08/10 12:34:31;;;;;;;;;;;;;;;;;;4984308;28;20658;-66
2022/08/10 12:37:04;;;;;;;1.77;0.70;;;;;;;;;;4990899;28;19929;-65
2022/08/10 12:39:30;;;;;;;1.17;1.08;;;;;;;;;;4990581;28;20043;-66
2022/08/10 12:42:05;;;;;;;2.42;1.15;;;;;;;;;;4990100;28;20050;-66
2022/08/10 12:44:31;;;;;;;1.60;0.80;;;;;;;;;;4988708;28;20065;-66
2022/08/10 12:47:02;;;;;;;1.98;0.63;;;;;;;;;;4971878;28;20658;-65
2022/08/10 12:49:35;;;;;;;1.25;0.80;;;;;;;;;;4990376;28;20068;-67
2022/08/10 12:52:10;;;;;;;1.70;0.80;;;;;;;;;;4990808;28;20053;-66
2022/08/10 12:54:37;;;;;;;3.13;1.00;;;;;;;;;;4989609;28;20042;-62
2022/08/10 12:57:08;;;;;;;3.53;1.00;;;;;;;;;;4990497;28;20665;-63
2022/08/10 12:59:36;;;;;;;1.70;0.90;;;;;;;;;;4990576;28;20046;-63
2022/08/10 13:02:02;;;;;;;1.15;0.90;;;;;;;;;;4989730;28;20642;-63
2022/08/10 13:04:34;;;;;;;3.35;1.10;;;;;;;;;;4999875;28;20037;-64
2022/08/10 13:07:01;;;;;;;9.45;2.15;;;;;;;;;;4990244;28;20043;-63
2022/08/10 13:09:27;;;;;;;3.20;0.75;;;;;;;;;;4989918;28;20050;-62
2022/08/10 13:12:08;;;;;;;2.72;1.10;;;;;;;;;;4989261;28;20153;-61
2022/08/10 13:14:41;;;;;;;1.48;0.80;;;;;;;;;;4993444;28;20069;-62
2022/08/10 13:17:09;;;;;;;2.22;0.80;;;;;;;;;;4994431;28;20042;-62
2022/08/10 13:19:37;;;;;;;2.03;0.90;;;;;;;;;;4994574;28;20046;-62
2022/08/10 13:22:04;;;;;;;1.13;0.65;;;;;;;;;;4994001;28;20431;-62
2022/08/10 13:24:35;;;;;;;2.30;0.82;;;;;;;;;;4993424;28;20524;-62
2022/08/10 13:27:01;;;;;;;;;;;;;;;;;;4994417;28;20034;-63
2022/08/10 13:29:29;;;;;;;2.25;0.85;;;;;;;;;;4993473;28;20008;-63
2022/08/10 13:31:58;;;;;;;3.75;0.93;;;;;;;;;;4976322;28;20053;-64
2022/08/10 13:34:25;;;;;;;5.15;1.00;;;;;;;;;;4994053;28;20501;-65
2022/08/10 13:37:00;;;;;;;1.95;0.75;;;;;;;;;;4993510;28;20070;-64
2022/08/10 13:39:32;;;;;;;0.90;0.68;;;;;;;;;;4993912;28;20050;-64
2022/08/10 13:42:01;;;;;;;1.38;0.93;;;;;;;;;;4994029;28;20041;-64
2022/08/10 13:44:29;;;;;;;1.75;0.77;;;;;;;;;;4988757;28;20058;-63
2022/08/10 13:46:56;;;;;;;2.40;0.70;;;;;;;;;;4993342;28;20101;-64
2022/08/10 13:49:22;;;;;;;5.35;0.90;;;;;;;;;;5003644;28;20061;-64
2022/08/10 13:51:49;;;;;;;3.50;0.95;;;;;;;;;;4993453;28;20101;-63
2022/08/10 13:54:15;;;;;;;3.45;0.93;;;;;;;;;;4992881;28;20038;-63
2022/08/10 13:56:43;;;;;;;4.30;0.90;;;;;;;;;;4982716;28;20390;-64
2022/08/10 13:59:10;;;;;;;1.65;0.73;;;;;;;;;;4995835;28;20495;-64
2022/08/10 14:01:37;;;;;;;1.67;0.93;;;;;;;;;;4993425;28;20046;-63
2022/08/10 14:04:05;;;;;;;1.90;0.63;;;;;;;;;;4992718;28;20038;-66
2022/08/10 14:06:32;;;;;;;0.98;0.65;;;;;;;;;;4992557;28;20053;-63
2022/08/10 14:09:09;;;;;;;2.47;1.15;;;;;;;;;;4995571;28;20125;-62
2022/08/10 14:11:39;;;;;;;2.88;0.90;;;;;;;;;;4993652;28;20038;-64
2022/08/10 14:14:07;;;;;;;1.38;0.70;;;;;;;;;;4993858;28;20050;-64
2022/08/10 14:16:33;;;;;;;1.58;0.85;;;;;;;;;;4992286;28;20397;-63
2022/08/10 14:19:02;;;;;;;2.53;0.68;;;;;;;;;;4992114;28;20453;-64
2022/08/10 14:21:28;;;;;;;1.40;0.88;;;;;;;;;;4992648;28;20046;-64
2022/08/10 14:23:55;;;;;;;3.08;1.00;;;;;;;;;;4992576;28;20046;-63
2022/08/10 14:26:23;;;;;;;0.75;0.70;;;;;;;;;;4992897;28;20149;-66
2022/08/10 14:28:52;;;;;;;1.75;0.65;;;;;;;;;;4993238;28;20117;-63
2022/08/10 14:31:20;;;;;;;0.80;0.60;;;;;;;;;;4992948;28;20472;-63
2022/08/10 14:33:54;;;;;;;0.80;0.80;;;;;;;;;;4997089;28;20133;-63
2022/08/10 14:36:29;;;;;;;0.80;0.60;;;;;;;;;;4998483;28;20378;-63
2022/08/10 14:38:56;;;;;;;2.75;0.70;;;;;;;;;;4974602;28;20046;-63
2022/08/10 14:41:26;;;;;;;1.42;0.70;;;;;;;;;;4959504;28;20098;-66
2022/08/10 14:43:55;;;;;;;1.48;0.60;;;;;;;;;;4992089;28;20125;-66
2022/08/10 14:46:23;;;;;;;1.42;0.55;;;;;;;;;;4994510;28;20038;-65
2022/08/10 14:48:50;;;;;;;5.53;0.57;;;;;;;;;;5006721;28;20057;-65
2022/08/10 14:51:19;;;;;;;0.77;0.60;;;;;;;;;;5011782;28;20099;-65
2022/08/10 14:53:49;;;;;;;2.58;0.70;;;;;;;;;;5011904;28;20048;-65
2022/08/10 14:56:17;;;;;;;1.67;0.68;;;;;;;;;;5011882;28;20042;-68
2022/08/10 14:58:50;;;;;;;1.17;0.60;;;;;;;;;;5013888;28;20583;-68